ADDS METAR Data INFO
IDs: Format: Raw Decoded Include TAF

Data at: 0745 UTC 23 Jul 2018

KX60 230735Z AUTO 15008G19KT 110V170 5SM BR 23/23 A2978 RMK A01
KX60 230715Z AUTO 16006KT 7SM 23/23 A2983 RMK A01
KX60 230655Z AUTO 17007KT 10SM 23/23 A2984 RMK A01
KX60 230635Z AUTO 00000KT 10SM 23/23 A2982 RMK A01
KX60 230615Z AUTO VRB05KT 10SM 23/23 A2981 RMK A01
KX60 230555Z AUTO 14006KT 10SM 23/23 A2981 RMK A01
KX60 230535Z AUTO 15004KT 10SM 23/23 A2983 RMK A01
KX60 230515Z AUTO 00000KT 10SM 22/22 A2982 RMK A01
KX60 230455Z AUTO 15005KT 10SM 22/22 A2983 RMK A01
KX60 230435Z AUTO 00000KT 10SM 22/22 A2985 RMK A01
KX60 230415Z AUTO 00000KT 10SM 22/22 A2985 RMK A01
KX60 230355Z AUTO VRB04KT 10SM 22/22 A2985 RMK A01
KX60 230335Z AUTO 16005KT 10SM 22/22 A2986 RMK A01
KX60 230315Z AUTO 16005G11KT 10SM 22/22 A2986 RMK A01
KX60 230255Z AUTO 00000KT 10SM 22/22 A2988 RMK A01
KX60 230235Z AUTO 00000KT 10SM 22/22 A2986 RMK A01
KX60 230215Z AUTO 14004KT 9SM 22/22 A2988 RMK A01
KX60 230155Z AUTO 00000KT 5SM BR 22/22 A2989 RMK A01 P0037
KX60 230135Z AUTO 16005KT 1SM BR 22/22 A2989 RMK A01
KX60 230115Z AUTO 00000KT 4SM BR 22/22 A2988 RMK A01
KX60 230055Z AUTO 18006KT 1 1/2SM BR 22/22 A2992 RMK A01 P0045
KX60 230035Z AUTO 28015KT 8SM 22/22 A2993 RMK A01
KX60 230015Z AUTO 00000KT 5SM BR 22/22 A2983 RMK A01
KX60 222355Z AUTO 17004KT 1SM BR 22/22 A2986 RMK A01 P0030
KX60 222335Z AUTO 15007KT 2SM BR 22/22 A2986 RMK A01 VIS 1V5
KX60 222315Z AUTO 00000KT 2 1/2SM BR 22/22 A2986 RMK A01
KX60 222255Z AUTO 20008KT 1/4SM FG 22/22 A2988 RMK A01 P0054
KX60 222235Z AUTO 24006KT 7SM 22/23 A2989 RMK A01
KX60 222215Z AUTO 00000KT 3SM BR 23/23 A2984 RMK A01
KX60 222155Z AUTO 15004KT 1 1/2SM BR 23/23 A2987 RMK A01 P0045
KX60 222135Z AUTO 00000G17KT 1 3/4SM BR 23/23 A2988 RMK A01
KX60 222115Z AUTO 00000G10KT 2 1/2SM BR 24/24 A2992 RMK A01
KX60 222055Z AUTO 00000G11KT 2SM BR 24/24 A2988 RMK A01 P0028 VIS 3/4V5
KX60 222035Z AUTO 35005G11KT 4SM BR 24/24 A2988 RMK A01
KX60 222015Z AUTO 00000KT 4SM BR 24/24 A2985 RMK A01
KX60 221955Z AUTO 00000KT 1SM BR 24/24 A2986 RMK A01 P0029
KX60 221935Z AUTO VRB06G16KT 5SM BR 24/24 A2986 RMK A01
KX60 221915Z AUTO 34013G19KT 10SM 27/25 A2986 RMK A01
KX60 221855Z AUTO 23009G21KT 200V270 7SM 34/31 A2983 RMK A01
KX60 221835Z AUTO 20011G21KT 6SM HZ 33/31 A2982 RMK A01
KX60 221815Z AUTO 19007G13KT 6SM BR 33/31 A2982 RMK A01
KX60 221755Z AUTO 21012G20KT 6SM BR 33/31 A2981 RMK A01
KX60 221735Z AUTO 21014G20KT 6SM BR 33/31 A2983 RMK A01
KX60 221715Z AUTO 19009G21KT 5SM BR 33/31 A2983 RMK A01
KX60 221655Z AUTO 21014G20KT 5SM BR 32/31 A2983 RMK A01 P0001
KX60 221635Z AUTO 20012G20KT 6SM BR 31/31 A2984 RMK A01
KX60 221615Z AUTO 20009G17KT 4SM BR 31/31 A2984 RMK A01
KX60 221555Z AUTO 22009G15KT 5SM BR 30/30 A2984 RMK A01 P0005
KX60 221535Z AUTO VRB05G13KT 2SM BR 31/30 A2985 RMK A01
KX60 221515Z AUTO 20011KT 7SM 33/31 A2986 RMK A01
KX60 221455Z AUTO 21010KT 6SM BR 33/31 A2988 RMK A01
KX60 221435Z AUTO 22012KT 6SM BR 33/31 A2988 RMK A01
KX60 221415Z AUTO 20007G12KT 6SM BR 32/31 A2989 RMK A01
KX60 221355Z AUTO 22009KT 6SM BR 31/31 A2989 RMK A01
KX60 221335Z AUTO 21008KT 6SM BR 31/31 A2989 RMK A01
KX60 221315Z AUTO 23007KT 5SM BR 31/30 A2990 RMK A01
KX60 221255Z AUTO 22007G12KT 6SM BR 30/30 A2990 RMK A01
KX60 221235Z AUTO 20006KT 5SM BR 29/29 A2990 RMK A01
KX60 221215Z AUTO 00000KT 4SM BR 29/29 A2989 RMK A01
KX60 221155Z AUTO 00000KT 4SM BR 28/28 A2988 RMK A01
KX60 221135Z AUTO 00000KT 4SM BR 28/28 A2988 RMK A01
KX60 221115Z AUTO 20004KT 3SM BR 27/27 A2989 RMK A01
KX60 221055Z AUTO 00000KT 3SM BR 27/27 A2989 RMK A01
KX60 221035Z AUTO 00000KT 5SM BR 27/27 A2988 RMK A01
KX60 221015Z AUTO 00000KT 5SM BR 27/27 A2988 RMK A01
KX60 220955Z AUTO 00000G18KT 27/27 A2987 RMK A01
KX60 220935Z AUTO 00000KT 4SM BR 27/27 A2987 RMK A01
KX60 220915Z AUTO 00000KT 5SM BR 27/27 A2988 RMK A01
KX60 220855Z AUTO 00000KT 4SM BR 27/27 A2987 RMK A01
KX60 220835Z AUTO 00000KT 4SM BR 27/27 A2987 RMK A01
KX60 220815Z AUTO 00000KT 4SM BR 27/27 A2987 RMK A01
KX60 220755Z AUTO 00000KT 4SM BR 27/27 A2987 RMK A01
KX60 220735Z AUTO 00000KT 4SM BR 28/28 A2988 RMK A01
KX60 220715Z AUTO 00000KT 5SM BR 28/28 A2987 RMK A01
KX60 220655Z AUTO 00000KT 5SM BR 27/27 A2987 RMK A01
KX60 220635Z AUTO 20005KT 6SM BR 27/27 A2986 RMK A01
KX60 220615Z AUTO 00000KT 7SM 26/26 A2985 RMK A01
KX60 220555Z AUTO 17006KT 8SM 26/26 A2987 RMK A01
KX60 220535Z AUTO 00000KT 10SM 26/26 A2989 RMK A01
KX60 220515Z AUTO 00000KT 10SM 25/25 A2991 RMK A01
KX60 220455Z AUTO 00000KT 10SM 25/25 A2991 RMK A01
KX60 220435Z AUTO 00000KT 10SM 25/25 A2993 RMK A01
KX60 220415Z AUTO 00000KT 10SM 25/25 A2994 RMK A01
KX60 220355Z AUTO 00000KT 10SM 25/25 A2994 RMK A01
KX60 220335Z AUTO 00000KT 10SM 25/25 A2993 RMK A01
KX60 220315Z AUTO 00000KT 10SM 24/24 A2993 RMK A01
KX60 220255Z AUTO 00000KT 10SM 24/24 A2993 RMK A01
KX60 220235Z AUTO 00000KT 10SM 24/25 A2994 RMK A01
KX60 220215Z AUTO 00000KT 10SM 25/25 A2994 RMK A01
KX60 220155Z AUTO 00000KT 10SM 25/25 A2993 RMK A01
KX60 220135Z AUTO 00000KT 10SM 25/25 A2993 RMK A01
KX60 220115Z AUTO 00000KT 10SM 25/25 A2992 RMK A01
KX60 220055Z AUTO 00000KT 10SM 25/25 A2991 RMK A01
KX60 220035Z AUTO 00000KT 10SM 25/25 A2990 RMK A01
KX60 220015Z AUTO 00000KT 10SM 26/26 A2989 RMK A01
KX60 212355Z AUTO 00000KT 10SM 26/26 A2988 RMK A01
KX60 212335Z AUTO 00000KT 10SM 26/26 A2986 RMK A01
KX60 212315Z AUTO 00000KT 10SM 26/26 A2987 RMK A01
KX60 212255Z AUTO 00000KT 5SM BR 26/26 A2986 RMK A01
KX60 212235Z AUTO 00000KT 10SM 25/25 A2986 RMK A01
KX60 212215Z AUTO 00000KT 7SM 26/26 A2986 RMK A01
KX60 212155Z AUTO 00000KT 9SM 25/25 A2986 RMK A01
KX60 212135Z AUTO 00000KT 10SM 25/25 A2990 RMK A01
KX60 212115Z AUTO 00000KT 10SM 25/25 A2994 RMK A01
KX60 212055Z AUTO VRB03G12KT 1 1/2SM BR 25/25 A2994 RMK A01 P0008
KX60 212035Z AUTO 29023G29KT 10SM 30/25 A3000 RMK A01
KX60 212015Z AUTO 28010KT 10SM 31/27 A2998 RMK A01
KX60 211955Z AUTO 27008G13KT 10SM 31/28 A2997 RMK A01